Time,TemperatureF,DewpointF,PressureIn,WindDirection,WindDirectionDegrees,WindSpeedMPH,WindSpeedGustMPH,Humidity,HourlyPrecipIn,Conditions,Clouds,dailyrainin,SolarRadiationWatts/m^2,SoftwareType,DateUTC
2013-02-13 00:01:00,42.0,13.0,-100.00,NW,324,2.0,3.0,30,0.00,,,0.00,0.000000,,2013-02-13 05:01:00,
2013-02-13 00:32:00,42.0,13.0,-100.00,NW,324,2.0,3.0,30,0.00,,,0.00,0.000000,,2013-02-13 05:32:00,
2013-02-13 00:42:00,42.0,13.0,-100.00,NW,324,2.0,3.0,30,0.00,,,0.00,0.000000,,2013-02-13 05:42:00,
2013-02-13 00:52:00,42.0,13.0,-100.00,NW,324,2.0,3.0,30,0.00,,,0.00,0.000000,,2013-02-13 05:52:00,
2013-02-13 01:01:00,39.0,13.0,-100.00,WSW,246,1.0,4.0,34,0.00,,,0.00,0.000000,,2013-02-13 06:01:00,
2013-02-13 01:22:00,39.0,13.0,-100.00,WSW,246,1.0,4.0,34,0.00,,,0.00,0.000000,,2013-02-13 06:22:00,
2013-02-13 01:32:00,39.0,13.0,-100.00,WSW,246,1.0,4.0,34,0.00,,,0.00,0.000000,,2013-02-13 06:32:00,
2013-02-13 01:42:00,39.0,13.0,-100.00,WSW,246,1.0,4.0,34,0.00,,,0.00,0.000000,,2013-02-13 06:42:00,
2013-02-13 01:52:00,39.0,13.0,-100.00,WSW,246,1.0,4.0,34,0.00,,,0.00,0.000000,,2013-02-13 06:52:00,
2013-02-13 02:01:00,40.0,14.0,-100.00,NNW,338,1.0,2.0,34,0.00,,,0.00,0.000000,,2013-02-13 07:01:00,
2013-02-13 02:32:00,40.0,14.0,-100.00,NNW,338,1.0,2.0,34,0.00,,,0.00,0.000000,,2013-02-13 07:32:00,
2013-02-13 02:42:00,40.0,14.0,-100.00,NNW,338,1.0,2.0,34,0.00,,,0.00,0.000000,,2013-02-13 07:42:00,
2013-02-13 02:52:00,40.0,14.0,-100.00,NNW,338,1.0,2.0,34,0.00,,,0.00,0.000000,,2013-02-13 07:52:00,
2013-02-13 03:01:00,40.0,14.0,-100.00,North,10,2.0,3.0,34,0.00,,,0.00,0.000000,,2013-02-13 08:01:00,
2013-02-13 03:32:00,40.0,14.0,-100.00,North,10,2.0,3.0,34,0.00,,,0.00,0.000000,,2013-02-13 08:32:00,
2013-02-13 03:43:00,40.0,14.0,-100.00,North,10,2.0,3.0,34,0.00,,,0.00,0.000000,,2013-02-13 08:43:00,
2013-02-13 03:52:00,40.0,14.0,-100.00,North,10,2.0,3.0,34,0.00,,,0.00,0.000000,,2013-02-13 08:52:00,
2013-02-13 04:01:00,38.0,14.0,-100.00,NE,53,1.0,2.0,37,0.00,,,0.00,0.000000,,2013-02-13 09:01:00,
2013-02-13 04:21:00,38.0,14.0,-100.00,NE,53,1.0,2.0,37,0.00,,,0.00,0.000000,,2013-02-13 09:21:00,
2013-02-13 04:32:00,38.0,14.0,-100.00,NE,53,1.0,2.0,37,0.00,,,0.00,0.000000,,2013-02-13 09:32:00,
2013-02-13 04:42:00,38.0,14.0,-100.00,NE,53,1.0,2.0,37,0.00,,,0.00,0.000000,,2013-02-13 09:42:00,
2013-02-13 04:52:00,38.0,14.0,-100.00,NE,53,1.0,2.0,37,0.00,,,0.00,0.000000,,2013-02-13 09:52:00,
2013-02-13 05:01:00,37.0,17.0,-100.00,North,351,1.0,4.0,43,0.00,,,0.00,0.000000,,2013-02-13 10:01:00,
2013-02-13 05:32:00,37.0,17.0,-100.00,North,351,1.0,4.0,43,0.00,,,0.00,0.000000,,2013-02-13 10:32:00,
2013-02-13 05:42:00,37.0,17.0,-100.00,North,351,1.0,4.0,43,0.00,,,0.00,0.000000,,2013-02-13 10:42:00,
2013-02-13 05:52:00,37.0,17.0,-100.00,North,351,1.0,4.0,43,0.00,,,0.00,0.000000,,2013-02-13 10:52:00,
2013-02-13 06:01:00,36.0,15.0,-100.00,ENE,62,2.0,3.0,41,0.00,,,0.00,0.000000,,2013-02-13 11:01:00,
2013-02-13 06:32:00,36.0,15.0,-100.00,ENE,62,2.0,3.0,41,0.00,,,0.00,0.000000,,2013-02-13 11:32:00,
2013-02-13 06:42:00,36.0,15.0,-100.00,ENE,62,2.0,3.0,41,0.00,,,0.00,0.000000,,2013-02-13 11:42:00,
2013-02-13 06:52:00,36.0,15.0,-100.00,ENE,62,2.0,3.0,41,0.00,,,0.00,0.000000,,2013-02-13 11:52:00,
2013-02-13 07:01:00,38.0,17.0,-100.00,SW,219,1.0,4.0,42,0.00,,,0.00,0.000000,,2013-02-13 12:01:00,
2013-02-13 07:32:00,38.0,17.0,-100.00,SW,219,1.0,4.0,42,0.00,,,0.00,0.000000,,2013-02-13 12:32:00,
2013-02-13 07:42:00,38.0,17.0,-100.00,SW,219,1.0,4.0,42,0.00,,,0.00,0.000000,,2013-02-13 12:42:00,
2013-02-13 07:52:00,38.0,17.0,-100.00,SW,219,1.0,4.0,42,0.00,,,0.00,0.000000,,2013-02-13 12:52:00,
2013-02-13 08:01:00,38.0,15.0,-100.00,NE,35,1.0,3.0,38,0.00,,,0.00,0.000000,,2013-02-13 13:01:00,
2013-02-13 08:32:00,38.0,15.0,-100.00,NE,35,1.0,3.0,38,0.00,,,0.00,0.000000,,2013-02-13 13:32:00,
2013-02-13 08:42:00,38.0,15.0,-100.00,NE,35,1.0,3.0,38,0.00,,,0.00,0.000000,,2013-02-13 13:42:00,
2013-02-13 08:52:00,38.0,15.0,-100.00,NE,35,1.0,3.0,38,0.00,,,0.00,0.000000,,2013-02-13 13:52:00,
2013-02-13 09:01:00,40.0,17.0,-100.00,NE,51,2.0,5.0,39,0.00,,,0.00,0.000000,,2013-02-13 14:01:00,
2013-02-13 09:22:00,40.0,17.0,-100.00,NE,51,2.0,5.0,39,0.00,,,0.00,0.000000,,2013-02-13 14:22:00,
2013-02-13 09:32:00,40.0,17.0,-100.00,NE,51,2.0,5.0,39,0.00,,,0.00,0.000000,,2013-02-13 14:32:00,
2013-02-13 09:42:00,40.0,17.0,-100.00,NE,51,2.0,5.0,39,0.00,,,0.00,0.000000,,2013-02-13 14:42:00,
2013-02-13 09:52:00,40.0,17.0,-100.00,NE,51,2.0,5.0,39,0.00,,,0.00,0.000000,,2013-02-13 14:52:00,
2013-02-13 10:01:00,40.0,16.0,-100.00,East,83,2.0,6.0,38,0.00,,,0.00,0.000000,,2013-02-13 15:01:00,
2013-02-13 10:32:00,40.0,16.0,-100.00,East,83,2.0,6.0,38,0.00,,,0.00,0.000000,,2013-02-13 15:32:00,
2013-02-13 10:42:00,40.0,16.0,-100.00,East,83,2.0,6.0,38,0.00,,,0.00,0.000000,,2013-02-13 15:42:00,
2013-02-13 10:52:00,40.0,16.0,-100.00,East,83,2.0,6.0,38,0.00,,,0.00,0.000000,,2013-02-13 15:52:00,
2013-02-13 11:01:00,40.0,18.0,-100.00,ENE,63,2.0,5.0,41,0.00,,,0.00,0.000000,,2013-02-13 16:01:00,
2013-02-13 11:32:00,40.0,18.0,-100.00,ENE,63,2.0,5.0,41,0.00,,,0.00,0.000000,,2013-02-13 16:32:00,
2013-02-13 11:42:00,40.0,18.0,-100.00,ENE,63,2.0,5.0,41,0.00,,,0.00,0.000000,,2013-02-13 16:42:00,
2013-02-13 11:52:00,40.0,18.0,-100.00,ENE,63,2.0,5.0,41,0.00,,,0.00,0.000000,,2013-02-13 16:52:00,
2013-02-13 12:01:00,39.0,20.0,-100.00,SSW,193,3.0,8.0,46,0.00,,,0.00,0.000000,,2013-02-13 17:01:00,
2013-02-13 12:32:00,39.0,20.0,-100.00,SSW,193,3.0,8.0,46,0.00,,,0.00,0.000000,,2013-02-13 17:32:00,
2013-02-13 12:42:00,39.0,20.0,-100.00,SSW,193,3.0,8.0,46,0.00,,,0.00,0.000000,,2013-02-13 17:42:00,
2013-02-13 12:52:00,39.0,20.0,-100.00,SSW,193,3.0,8.0,46,0.00,,,0.00,0.000000,,2013-02-13 17:52:00,
2013-02-13 13:01:00,34.0,29.0,-100.00,NNE,16,1.0,6.0,83,0.02,,,0.02,0.000000,,2013-02-13 18:01:00,
2013-02-13 13:32:00,34.0,29.0,-100.00,NNE,16,1.0,6.0,83,0.02,,,0.02,0.000000,,2013-02-13 18:32:00,
2013-02-13 13:42:00,34.0,29.0,-100.00,NNE,16,1.0,6.0,83,0.02,,,0.02,0.000000,,2013-02-13 18:42:00,
2013-02-13 13:52:00,34.0,29.0,-100.00,NNE,16,1.0,6.0,83,0.02,,,0.02,0.000000,,2013-02-13 18:52:00,
2013-02-13 14:01:00,34.0,31.0,-100.00,NNE,31,3.0,4.0,90,0.01,,,0.03,0.000000,,2013-02-13 19:01:00,
2013-02-13 14:32:00,34.0,31.0,-100.00,NNE,31,3.0,4.0,90,0.01,,,0.03,0.000000,,2013-02-13 19:32:00,
2013-02-13 14:42:00,34.0,31.0,-100.00,NNE,31,3.0,4.0,90,0.01,,,0.03,0.000000,,2013-02-13 19:42:00,
2013-02-13 14:52:00,34.0,31.0,-100.00,NNE,31,3.0,4.0,90,0.01,,,0.03,0.000000,,2013-02-13 19:52:00,
2013-02-13 15:01:00,34.0,32.0,-100.00,NE,38,3.0,6.0,91,0.01,,,-99.99,0.000000,,2013-02-13 20:01:00,
2013-02-13 15:22:00,34.0,32.0,-100.00,NE,38,3.0,6.0,91,0.01,,,-99.99,0.000000,,2013-02-13 20:22:00,
2013-02-13 15:32:00,34.0,32.0,-100.00,NE,38,3.0,6.0,91,0.01,,,-99.99,0.000000,,2013-02-13 20:32:00,
2013-02-13 15:42:00,34.0,32.0,-100.00,NE,38,3.0,6.0,91,0.01,,,-99.99,0.000000,,2013-02-13 20:42:00,
2013-02-13 15:52:00,34.0,32.0,-100.00,NE,38,3.0,6.0,91,0.01,,,-99.99,0.000000,,2013-02-13 20:52:00,
2013-02-13 16:01:00,34.0,32.0,-100.00,North,11,1.0,6.0,92,0.01,,,0.05,0.000000,,2013-02-13 21:01:00,
2013-02-13 16:32:00,34.0,32.0,-100.00,North,11,1.0,6.0,92,0.01,,,0.05,0.000000,,2013-02-13 21:32:00,
2013-02-13 16:43:00,34.0,32.0,-100.00,North,11,1.0,6.0,92,0.01,,,0.05,0.000000,,2013-02-13 21:43:00,
2013-02-13 16:52:00,34.0,32.0,-100.00,North,11,1.0,6.0,92,0.01,,,0.05,0.000000,,2013-02-13 21:52:00,
2013-02-13 17:01:00,33.0,31.0,-100.00,North,6,1.0,3.0,92,0.00,,,0.05,0.000000,,2013-02-13 22:01:00,
2013-02-13 17:32:00,33.0,31.0,-100.00,North,6,1.0,3.0,92,0.00,,,0.05,0.000000,,2013-02-13 22:32:00,
2013-02-13 17:42:00,33.0,31.0,-100.00,North,6,1.0,3.0,92,0.00,,,0.05,0.000000,,2013-02-13 22:42:00,
2013-02-13 17:52:00,33.0,31.0,-100.00,North,6,1.0,3.0,92,0.00,,,0.05,0.000000,,2013-02-13 22:52:00,
2013-02-13 18:01:00,33.0,31.0,-100.00,ESE,108,2.0,3.0,93,0.00,,,0.05,0.000000,,2013-02-13 23:01:00,
2013-02-13 18:32:00,33.0,31.0,-100.00,ESE,108,2.0,3.0,93,0.00,,,0.05,0.000000,,2013-02-13 23:32:00,
2013-02-13 18:42:00,33.0,31.0,-100.00,ESE,108,2.0,3.0,93,0.00,,,0.05,0.000000,,2013-02-13 23:42:00,
2013-02-13 18:53:00,33.0,31.0,-100.00,ESE,108,2.0,3.0,93,0.00,,,0.05,0.000000,,2013-02-13 23:53:00,
2013-02-13 19:01:00,33.0,31.0,-100.00,WSW,253,3.0,10.0,94,0.00,,,0.05,0.000000,,2013-02-14 00:01:00,
2013-02-13 19:32:00,33.0,31.0,-100.00,WSW,253,3.0,10.0,94,0.00,,,0.05,0.000000,,2013-02-14 00:32:00,
2013-02-13 19:43:00,33.0,31.0,-100.00,WSW,253,3.0,10.0,94,0.00,,,0.05,0.000000,,2013-02-14 00:43:00,
2013-02-13 19:52:00,33.0,31.0,-100.00,WSW,253,3.0,10.0,94,0.00,,,0.05,0.000000,,2013-02-14 00:52:00,
2013-02-13 20:01:00,35.0,32.0,-100.00,NW,318,3.0,15.0,90,0.00,,,0.05,0.000000,,2013-02-14 01:01:00,
2013-02-13 20:32:00,35.0,32.0,-100.00,NW,318,3.0,15.0,90,0.00,,,0.05,0.000000,,2013-02-14 01:32:00,
2013-02-13 20:42:00,35.0,32.0,-100.00,NW,318,3.0,15.0,90,0.00,,,0.05,0.000000,,2013-02-14 01:42:00,
2013-02-13 20:52:00,35.0,32.0,-100.00,NW,318,3.0,15.0,90,0.00,,,0.05,0.000000,,2013-02-14 01:52:00,
2013-02-13 21:01:00,34.0,28.0,-100.00,NW,308,2.0,15.0,79,0.00,,,-99.99,0.000000,,2013-02-14 02:01:00,
2013-02-13 21:21:00,34.0,28.0,-100.00,NW,308,2.0,15.0,79,0.00,,,-99.99,0.000000,,2013-02-14 02:21:00,
2013-02-13 21:32:00,34.0,28.0,-100.00,NW,308,2.0,15.0,79,0.00,,,-99.99,0.000000,,2013-02-14 02:32:00,
2013-02-13 21:42:00,34.0,28.0,-100.00,NW,308,2.0,15.0,79,0.00,,,-99.99,0.000000,,2013-02-14 02:42:00,
2013-02-13 21:52:00,34.0,28.0,-100.00,NW,308,2.0,15.0,79,0.00,,,-99.99,0.000000,,2013-02-14 02:52:00,
2013-02-13 22:01:00,35.0,28.0,-100.00,West,259,3.0,8.0,75,0.00,,,0.05,0.000000,,2013-02-14 03:01:00,
2013-02-13 22:22:00,35.0,28.0,-100.00,West,259,3.0,8.0,75,0.00,,,0.05,0.000000,,2013-02-14 03:22:00,
2013-02-13 22:32:00,35.0,28.0,-100.00,West,259,3.0,8.0,75,0.00,,,0.05,0.000000,,2013-02-14 03:32:00,
2013-02-13 22:42:00,35.0,28.0,-100.00,West,259,3.0,8.0,75,0.00,,,0.05,0.000000,,2013-02-14 03:42:00,
2013-02-13 22:52:00,35.0,28.0,-100.00,West,259,3.0,8.0,75,0.00,,,0.05,0.000000,,2013-02-14 03:52:00,
2013-02-13 23:01:00,34.0,26.0,-100.00,WNW,292,3.0,11.0,73,0.01,,,0.06,0.000000,,2013-02-14 04:01:00,
2013-02-13 23:32:00,34.0,26.0,-100.00,WNW,292,3.0,11.0,73,0.01,,,0.06,0.000000,,2013-02-14 04:32:00,
2013-02-13 23:42:00,34.0,26.0,-100.00,WNW,292,3.0,11.0,73,0.01,,,0.06,0.000000,,2013-02-14 04:42:00,
2013-02-13 23:52:00,34.0,26.0,-100.00,WNW,292,3.0,11.0,73,0.01,,,0.06,0.000000,,2013-02-14 04:52:00,